sensor_id;sensor_type;location;lat;lon;timestamp;temperature;humidity
37646;DHT22;23489;49.600;6.138;2022-12-15T00:01:39;-3.50;99.90
37646;DHT22;23489;49.600;6.138;2022-12-15T00:04:23;-3.60;99.90
37646;DHT22;23489;49.600;6.138;2022-12-15T00:07:08;-3.60;99.90
37646;DHT22;23489;49.600;6.138;2022-12-15T00:09:52;-3.60;99.90
37646;DHT22;23489;49.600;6.138;2022-12-15T00:12:36;-3.60;99.90
37646;DHT22;23489;49.600;6.138;2022-12-15T00:15:21;-3.70;99.90
37646;DHT22;23489;49.600;6.138;2022-12-15T00:18:06;-3.70;99.90
37646;DHT22;23489;49.600;6.138;2022-12-15T00:20:50;-3.80;99.90
37646;DHT22;23489;49.600;6.138;2022-12-15T00:23:34;-3.80;99.90
37646;DHT22;23489;49.600;6.138;2022-12-15T00:26:19;-3.90;99.90
37646;DHT22;23489;49.600;6.138;2022-12-15T00:29:03;-3.90;99.90
37646;DHT22;23489;49.600;6.138;2022-12-15T00:31:47;-4.00;99.90
37646;DHT22;23489;49.600;6.138;2022-12-15T00:34:32;-4.10;99.90
37646;DHT22;23489;49.600;6.138;2022-12-15T00:37:16;-4.10;99.90
37646;DHT22;23489;49.600;6.138;2022-12-15T00:40:00;-4.10;99.90
37646;DHT22;23489;49.600;6.138;2022-12-15T00:42:29;-4.10;99.90
37646;DHT22;23489;49.600;6.138;2022-12-15T00:44:55;-4.10;99.90
37646;DHT22;23489;49.600;6.138;2022-12-15T00:47:21;-4.10;99.90
37646;DHT22;23489;49.600;6.138;2022-12-15T00:49:46;-4.20;99.90
37646;DHT22;23489;49.600;6.138;2022-12-15T00:52:31;-4.20;99.90
37646;DHT22;23489;49.600;6.138;2022-12-15T00:55:15;-4.20;99.90
37646;DHT22;23489;49.600;6.138;2022-12-15T00:57:59;-4.30;99.90
37646;DHT22;23489;49.600;6.138;2022-12-15T01:00:43;-4.30;99.90
37646;DHT22;23489;49.600;6.138;2022-12-15T01:03:28;-4.30;99.90
37646;DHT22;23489;49.600;6.138;2022-12-15T01:06:15;-4.30;99.90
37646;DHT22;23489;49.600;6.138;2022-12-15T01:09:01;-4.30;99.90
37646;DHT22;23489;49.600;6.138;2022-12-15T01:11:46;-4.40;99.90
37646;DHT22;23489;49.600;6.138;2022-12-15T01:14:31;-4.40;99.90
37646;DHT22;23489;49.600;6.138;2022-12-15T01:17:16;-4.40;99.90
37646;DHT22;23489;49.600;6.138;2022-12-15T01:20:01;-4.40;99.90
37646;DHT22;23489;49.600;6.138;2022-12-15T01:22:50;-4.40;99.90
37646;DHT22;23489;49.600;6.138;2022-12-15T01:25:18;-4.40;99.90
37646;DHT22;23489;49.600;6.138;2022-12-15T01:27:44;-4.50;99.90
37646;DHT22;23489;49.600;6.138;2022-12-15T01:30:12;-4.50;99.90
37646;DHT22;23489;49.600;6.138;2022-12-15T01:32:38;-4.50;99.90
37646;DHT22;23489;49.600;6.138;2022-12-15T01:35:05;-4.50;99.90
37646;DHT22;23489;49.600;6.138;2022-12-15T01:37:32;-4.50;99.90
37646;DHT22;23489;49.600;6.138;2022-12-15T01:39:58;-4.60;99.90
37646;DHT22;23489;49.600;6.138;2022-12-15T01:42:42;-4.60;99.90
37646;DHT22;23489;49.600;6.138;2022-12-15T01:47:50;-4.60;99.90
37646;DHT22;23489;49.600;6.138;2022-12-15T01:50:16;-4.60;99.90
37646;DHT22;23489;49.600;6.138;2022-12-15T01:52:42;-4.60;99.90
37646;DHT22;23489;49.600;6.138;2022-12-15T01:55:09;-4.60;99.90
37646;DHT22;23489;49.600;6.138;2022-12-15T01:57:35;-4.60;99.90
37646;DHT22;23489;49.600;6.138;2022-12-15T02:00:03;-4.70;99.90
37646;DHT22;23489;49.600;6.138;2022-12-15T02:02:32;-4.70;99.90
37646;DHT22;23489;49.600;6.138;2022-12-15T02:04:59;-4.70;99.90
37646;DHT22;23489;49.600;6.138;2022-12-15T02:07:26;-4.70;99.90
37646;DHT22;23489;49.600;6.138;2022-12-15T02:09:55;-4.80;99.90
37646;DHT22;23489;49.600;6.138;2022-12-15T02:18:14;-4.80;99.90
37646;DHT22;23489;49.600;6.138;2022-12-15T02:21:05;-4.80;99.90
37646;DHT22;23489;49.600;6.138;2022-12-15T02:26:44;-4.90;99.90
37646;DHT22;23489;49.600;6.138;2022-12-15T02:32:02;-4.90;99.90
37646;DHT22;23489;49.600;6.138;2022-12-15T02:34:48;-4.90;99.90
37646;DHT22;23489;49.600;6.138;2022-12-15T02:37:26;-4.90;99.90
37646;DHT22;23489;49.600;6.138;2022-12-15T02:39:54;-4.90;99.90
37646;DHT22;23489;49.600;6.138;2022-12-15T02:42:20;-4.90;99.90
37646;DHT22;23489;49.600;6.138;2022-12-15T02:44:54;-4.90;99.90
37646;DHT22;23489;49.600;6.138;2022-12-15T02:55:45;-5.00;99.90
37646;DHT22;23489;49.600;6.138;2022-12-15T02:58:42;-5.00;99.90
37646;DHT22;23489;49.600;6.138;2022-12-15T03:01:16;-5.00;99.90
37646;DHT22;23489;49.600;6.138;2022-12-15T03:03:43;-5.00;99.90
37646;DHT22;23489;49.600;6.138;2022-12-15T03:06:10;-5.10;99.90
37646;DHT22;23489;49.600;6.138;2022-12-15T03:08:36;-5.10;99.90
37646;DHT22;23489;49.600;6.138;2022-12-15T03:11:01;-5.10;99.90
37646;DHT22;23489;49.600;6.138;2022-12-15T03:13:27;-5.20;99.90
37646;DHT22;23489;49.600;6.138;2022-12-15T03:15:53;-5.30;99.90
37646;DHT22;23489;49.600;6.138;2022-12-15T03:18:19;-5.30;99.90
37646;DHT22;23489;49.600;6.138;2022-12-15T03:20:48;-5.30;99.90
37646;DHT22;23489;49.600;6.138;2022-12-15T03:23:14;-5.40;99.90
37646;DHT22;23489;49.600;6.138;2022-12-15T03:25:40;-5.40;99.90
37646;DHT22;23489;49.600;6.138;2022-12-15T03:28:05;-5.40;99.90
37646;DHT22;23489;49.600;6.138;2022-12-15T03:30:31;-5.40;99.90
37646;DHT22;23489;49.600;6.138;2022-12-15T03:32:56;-5.50;99.90
37646;DHT22;23489;49.600;6.138;2022-12-15T03:35:22;-5.50;99.90
37646;DHT22;23489;49.600;6.138;2022-12-15T03:37:48;-5.60;99.90
37646;DHT22;23489;49.600;6.138;2022-12-15T03:40:13;-5.60;99.90
37646;DHT22;23489;49.600;6.138;2022-12-15T03:42:42;-5.70;99.90
37646;DHT22;23489;49.600;6.138;2022-12-15T03:45:15;-5.70;99.90
37646;DHT22;23489;49.600;6.138;2022-12-15T03:47:43;-5.70;99.90
37646;DHT22;23489;49.600;6.138;2022-12-15T03:50:10;-5.70;99.90
37646;DHT22;23489;49.600;6.138;2022-12-15T03:52:36;-5.70;99.90
37646;DHT22;23489;49.600;6.138;2022-12-15T03:55:03;-5.70;99.90
37646;DHT22;23489;49.600;6.138;2022-12-15T03:57:29;-5.70;99.90
37646;DHT22;23489;49.600;6.138;2022-12-15T03:59:55;-5.70;99.90
37646;DHT22;23489;49.600;6.138;2022-12-15T04:02:21;-5.70;99.90
37646;DHT22;23489;49.600;6.138;2022-12-15T04:04:46;-5.70;99.90
37646;DHT22;23489;49.600;6.138;2022-12-15T04:07:13;-5.70;99.90
37646;DHT22;23489;49.600;6.138;2022-12-15T04:09:39;-5.70;99.90
37646;DHT22;23489;49.600;6.138;2022-12-15T04:12:05;-5.70;99.90
37646;DHT22;23489;49.600;6.138;2022-12-15T04:14:31;-5.70;99.90
37646;DHT22;23489;49.600;6.138;2022-12-15T04:16:57;-5.70;99.90
37646;DHT22;23489;49.600;6.138;2022-12-15T04:19:23;-5.70;99.90
37646;DHT22;23489;49.600;6.138;2022-12-15T04:22:07;-5.70;99.90
37646;DHT22;23489;49.600;6.138;2022-12-15T04:24:32;-5.80;99.90
37646;DHT22;23489;49.600;6.138;2022-12-15T04:27:17;-5.70;99.90
37646;DHT22;23489;49.600;6.138;2022-12-15T04:30:02;-5.80;99.90
37646;DHT22;23489;49.600;6.138;2022-12-15T04:32:46;-5.80;99.90
37646;DHT22;23489;49.600;6.138;2022-12-15T04:35:32;-5.80;99.90
37646;DHT22;23489;49.600;6.138;2022-12-15T04:38:18;-5.80;99.90
37646;DHT22;23489;49.600;6.138;2022-12-15T04:41:04;-5.80;99.90
37646;DHT22;23489;49.600;6.138;2022-12-15T04:43:49;-5.90;99.90
37646;DHT22;23489;49.600;6.138;2022-12-15T04:46:33;-5.90;99.90
37646;DHT22;23489;49.600;6.138;2022-12-15T04:49:18;-5.90;99.90
37646;DHT22;23489;49.600;6.138;2022-12-15T04:52:02;-5.80;99.90
37646;DHT22;23489;49.600;6.138;2022-12-15T04:54:46;-5.80;99.90
37646;DHT22;23489;49.600;6.138;2022-12-15T04:57:31;-5.80;99.90
37646;DHT22;23489;49.600;6.138;2022-12-15T05:00:15;-5.80;99.90
37646;DHT22;23489;49.600;6.138;2022-12-15T05:03:06;-5.80;99.90
37646;DHT22;23489;49.600;6.138;2022-12-15T05:05:50;-5.70;99.90
37646;DHT22;23489;49.600;6.138;2022-12-15T05:08:35;-5.70;99.90
37646;DHT22;23489;49.600;6.138;2022-12-15T05:11:19;-5.80;99.90
37646;DHT22;23489;49.600;6.138;2022-12-15T05:14:03;-5.80;99.90
37646;DHT22;23489;49.600;6.138;2022-12-15T05:16:48;-5.80;99.90
37646;DHT22;23489;49.600;6.138;2022-12-15T05:19:32;-5.80;99.90
37646;DHT22;23489;49.600;6.138;2022-12-15T05:22:17;-5.80;99.90
37646;DHT22;23489;49.600;6.138;2022-12-15T05:25:02;-5.80;99.90
37646;DHT22;23489;49.600;6.138;2022-12-15T05:27:46;-5.80;99.90
37646;DHT22;23489;49.600;6.138;2022-12-15T05:30:30;-5.80;99.90
37646;DHT22;23489;49.600;6.138;2022-12-15T05:33:14;-5.80;99.90
37646;DHT22;23489;49.600;6.138;2022-12-15T05:35:40;-5.90;99.90
37646;DHT22;23489;49.600;6.138;2022-12-15T05:38:05;-5.90;99.90
37646;DHT22;23489;49.600;6.138;2022-12-15T05:40:31;-5.90;99.90
37646;DHT22;23489;49.600;6.138;2022-12-15T05:42:57;-6.00;99.90
37646;DHT22;23489;49.600;6.138;2022-12-15T05:45:23;-6.00;99.90
37646;DHT22;23489;49.600;6.138;2022-12-15T05:47:50;-6.10;99.90
37646;DHT22;23489;49.600;6.138;2022-12-15T05:50:17;-6.10;99.90
37646;DHT22;23489;49.600;6.138;2022-12-15T05:52:43;-6.10;99.90
37646;DHT22;23489;49.600;6.138;2022-12-15T05:55:09;-6.10;99.90
37646;DHT22;23489;49.600;6.138;2022-12-15T05:57:34;-6.10;99.90
37646;DHT22;23489;49.600;6.138;2022-12-15T06:00:00;-6.20;99.90
37646;DHT22;23489;49.600;6.138;2022-12-15T06:02:29;-6.10;99.90
37646;DHT22;23489;49.600;6.138;2022-12-15T06:04:54;-6.10;99.90
37646;DHT22;23489;49.600;6.138;2022-12-15T06:07:20;-6.10;99.90
37646;DHT22;23489;49.600;6.138;2022-12-15T06:09:46;-6.20;99.90
37646;DHT22;23489;49.600;6.138;2022-12-15T06:12:11;-6.20;99.90
37646;DHT22;23489;49.600;6.138;2022-12-15T06:14:37;-6.20;99.90
37646;DHT22;23489;49.600;6.138;2022-12-15T06:17:03;-6.20;99.90
37646;DHT22;23489;49.600;6.138;2022-12-15T06:19:28;-6.20;99.90
37646;DHT22;23489;49.600;6.138;2022-12-15T06:21:54;-6.20;99.90
37646;DHT22;23489;49.600;6.138;2022-12-15T06:24:20;-6.20;99.90
37646;DHT22;23489;49.600;6.138;2022-12-15T06:26:47;-6.20;99.90
37646;DHT22;23489;49.600;6.138;2022-12-15T06:29:12;-6.10;99.90
37646;DHT22;23489;49.600;6.138;2022-12-15T06:31:39;-6.10;99.90
37646;DHT22;23489;49.600;6.138;2022-12-15T06:34:11;-6.10;99.90
37646;DHT22;23489;49.600;6.138;2022-12-15T06:36:38;-6.10;99.90
37646;DHT22;23489;49.600;6.138;2022-12-15T06:39:05;-6.10;99.90
37646;DHT22;23489;49.600;6.138;2022-12-15T06:41:32;-6.10;99.90
37646;DHT22;23489;49.600;6.138;2022-12-15T06:43:59;-6.10;99.90
37646;DHT22;23489;49.600;6.138;2022-12-15T06:46:25;-6.20;99.90
37646;DHT22;23489;49.600;6.138;2022-12-15T06:48:52;-6.20;99.90
37646;DHT22;23489;49.600;6.138;2022-12-15T06:51:18;-6.20;99.90
37646;DHT22;23489;49.600;6.138;2022-12-15T06:53:44;-6.20;99.90
37646;DHT22;23489;49.600;6.138;2022-12-15T06:56:17;-6.20;99.90
37646;DHT22;23489;49.600;6.138;2022-12-15T06:58:47;-6.00;99.90
37646;DHT22;23489;49.600;6.138;2022-12-15T07:01:13;-5.50;99.90
37646;DHT22;23489;49.600;6.138;2022-12-15T07:03:40;-5.70;99.90
37646;DHT22;23489;49.600;6.138;2022-12-15T07:06:09;-5.80;99.90
37646;DHT22;23489;49.600;6.138;2022-12-15T07:08:35;-5.90;99.90
37646;DHT22;23489;49.600;6.138;2022-12-15T07:11:02;-6.00;99.90
37646;DHT22;23489;49.600;6.138;2022-12-15T07:13:28;-5.90;99.90
37646;DHT22;23489;49.600;6.138;2022-12-15T07:16:01;-5.90;99.90
37646;DHT22;23489;49.600;6.138;2022-12-15T07:18:28;-5.80;99.90
37646;DHT22;23489;49.600;6.138;2022-12-15T07:20:54;-5.70;99.90
37646;DHT22;23489;49.600;6.138;2022-12-15T07:23:20;-5.70;99.90
37646;DHT22;23489;49.600;6.138;2022-12-15T07:25:46;-5.70;99.90
37646;DHT22;23489;49.600;6.138;2022-12-15T07:28:11;-5.60;99.90
37646;DHT22;23489;49.600;6.138;2022-12-15T07:30:37;-5.10;99.90
37646;DHT22;23489;49.600;6.138;2022-12-15T07:33:04;-5.20;99.90
37646;DHT22;23489;49.600;6.138;2022-12-15T07:35:30;-5.10;99.90
37646;DHT22;23489;49.600;6.138;2022-12-15T07:37:55;-5.10;99.90
37646;DHT22;23489;49.600;6.138;2022-12-15T07:40:21;-5.20;99.90
37646;DHT22;23489;49.600;6.138;2022-12-15T07:42:47;-5.30;99.90
37646;DHT22;23489;49.600;6.138;2022-12-15T07:45:13;-5.30;99.90
37646;DHT22;23489;49.600;6.138;2022-12-15T07:47:38;-5.30;99.90
37646;DHT22;23489;49.600;6.138;2022-12-15T07:50:04;-5.10;99.90
37646;DHT22;23489;49.600;6.138;2022-12-15T07:52:30;-5.10;99.90
37646;DHT22;23489;49.600;6.138;2022-12-15T07:54:56;-5.00;99.90
37646;DHT22;23489;49.600;6.138;2022-12-15T07:57:21;-5.00;99.90
37646;DHT22;23489;49.600;6.138;2022-12-15T07:59:48;-4.90;99.90
37646;DHT22;23489;49.600;6.138;2022-12-15T08:02:14;-4.90;99.90
37646;DHT22;23489;49.600;6.138;2022-12-15T08:04:40;-4.90;99.90
37646;DHT22;23489;49.600;6.138;2022-12-15T08:07:07;-4.80;99.90
37646;DHT22;23489;49.600;6.138;2022-12-15T08:09:33;-4.70;99.90
37646;DHT22;23489;49.600;6.138;2022-12-15T08:11:59;-4.60;99.90
37646;DHT22;23489;49.600;6.138;2022-12-15T08:14:25;-4.60;99.90
37646;DHT22;23489;49.600;6.138;2022-12-15T08:16:50;-4.50;99.90
37646;DHT22;23489;49.600;6.138;2022-12-15T08:19:16;-4.50;99.90
37646;DHT22;23489;49.600;6.138;2022-12-15T08:21:44;-4.40;99.90
37646;DHT22;23489;49.600;6.138;2022-12-15T08:24:11;-4.40;99.90
37646;DHT22;23489;49.600;6.138;2022-12-15T08:26:38;-4.30;99.90
37646;DHT22;23489;49.600;6.138;2022-12-15T08:29:05;-4.20;99.90
37646;DHT22;23489;49.600;6.138;2022-12-15T08:31:32;-4.10;99.90
37646;DHT22;23489;49.600;6.138;2022-12-15T08:34:02;-4.10;99.90
37646;DHT22;23489;49.600;6.138;2022-12-15T08:36:28;-4.00;99.90
37646;DHT22;23489;49.600;6.138;2022-12-15T08:38:55;-3.90;99.90
37646;DHT22;23489;49.600;6.138;2022-12-15T08:41:24;-3.80;99.90
37646;DHT22;23489;49.600;6.138;2022-12-15T08:43:52;-3.70;99.90
37646;DHT22;23489;49.600;6.138;2022-12-15T08:46:20;-3.60;99.90
37646;DHT22;23489;49.600;6.138;2022-12-15T08:48:47;-3.50;99.90
37646;DHT22;23489;49.600;6.138;2022-12-15T08:51:13;-3.50;99.90
37646;DHT22;23489;49.600;6.138;2022-12-15T08:53:39;-3.50;99.90
37646;DHT22;23489;49.600;6.138;2022-12-15T08:56:05;-3.50;99.90
37646;DHT22;23489;49.600;6.138;2022-12-15T08:58:32;-3.60;99.90
37646;DHT22;23489;49.600;6.138;2022-12-15T09:01:02;-3.60;99.90
37646;DHT22;23489;49.600;6.138;2022-12-15T09:03:28;-3.60;99.90
37646;DHT22;23489;49.600;6.138;2022-12-15T09:05:54;-3.50;99.90
37646;DHT22;23489;49.600;6.138;2022-12-15T09:08:22;-3.40;99.90
37646;DHT22;23489;49.600;6.138;2022-12-15T09:10:49;-3.30;99.90
37646;DHT22;23489;49.600;6.138;2022-12-15T09:13:15;-3.20;99.90
37646;DHT22;23489;49.600;6.138;2022-12-15T09:15:41;-3.10;99.90
37646;DHT22;23489;49.600;6.138;2022-12-15T09:18:08;-2.80;99.90
37646;DHT22;23489;49.600;6.138;2022-12-15T09:20:33;-2.70;99.90
37646;DHT22;23489;49.600;6.138;2022-12-15T09:22:59;-2.60;99.90
37646;DHT22;23489;49.600;6.138;2022-12-15T09:25:24;-2.50;99.90
37646;DHT22;23489;49.600;6.138;2022-12-15T09:27:50;-2.40;99.90
37646;DHT22;23489;49.600;6.138;2022-12-15T09:30:16;-2.40;99.90
37646;DHT22;23489;49.600;6.138;2022-12-15T09:32:41;-2.40;99.90
37646;DHT22;23489;49.600;6.138;2022-12-15T09:35:07;-2.40;99.90
37646;DHT22;23489;49.600;6.138;2022-12-15T09:37:33;-2.40;99.90
37646;DHT22;23489;49.600;6.138;2022-12-15T09:39:58;-2.40;99.90
37646;DHT22;23489;49.600;6.138;2022-12-15T09:42:26;-2.40;99.90
37646;DHT22;23489;49.600;6.138;2022-12-15T09:44:59;-2.40;99.90
37646;DHT22;23489;49.600;6.138;2022-12-15T09:47:36;-2.30;99.90
37646;DHT22;23489;49.600;6.138;2022-12-15T09:50:09;-2.20;99.90
37646;DHT22;23489;49.600;6.138;2022-12-15T09:55:16;-1.90;99.90
37646;DHT22;23489;49.600;6.138;2022-12-15T10:00:36;-1.90;99.90
37646;DHT22;23489;49.600;6.138;2022-12-15T10:03:27;-1.90;99.90
37646;DHT22;23489;49.600;6.138;2022-12-15T10:08:42;-2.00;99.90
37646;DHT22;23489;49.600;6.138;2022-12-15T10:11:59;-2.00;99.90
37646;DHT22;23489;49.600;6.138;2022-12-15T10:20:01;-1.80;99.90
37646;DHT22;23489;49.600;6.138;2022-12-15T10:22:33;-1.80;99.90
37646;DHT22;23489;49.600;6.138;2022-12-15T10:25:17;-2.00;99.90
37646;DHT22;23489;49.600;6.138;2022-12-15T10:31:01;-2.30;99.90
37646;DHT22;23489;49.600;6.138;2022-12-15T10:33:37;-2.40;99.90
37646;DHT22;23489;49.600;6.138;2022-12-15T10:36:10;-2.50;99.90
37646;DHT22;23489;49.600;6.138;2022-12-15T10:38:38;-2.50;99.90
37646;DHT22;23489;49.600;6.138;2022-12-15T10:41:13;-2.60;99.90
37646;DHT22;23489;49.600;6.138;2022-12-15T10:43:41;-2.50;99.90
37646;DHT22;23489;49.600;6.138;2022-12-15T10:48:38;-2.50;99.90
37646;DHT22;23489;49.600;6.138;2022-12-15T10:51:31;-2.60;99.90
37646;DHT22;23489;49.600;6.138;2022-12-15T10:54:02;-2.60;99.90
37646;DHT22;23489;49.600;6.138;2022-12-15T10:56:30;-2.70;99.90
37646;DHT22;23489;49.600;6.138;2022-12-15T10:58:58;-2.60;99.90
37646;DHT22;23489;49.600;6.138;2022-12-15T11:01:27;-2.60;99.90
37646;DHT22;23489;49.600;6.138;2022-12-15T11:03:53;-2.50;99.90
37646;DHT22;23489;49.600;6.138;2022-12-15T11:06:21;-2.40;99.90
37646;DHT22;23489;49.600;6.138;2022-12-15T11:08:53;-2.20;99.90
37646;DHT22;23489;49.600;6.138;2022-12-15T11:11:26;-2.00;99.90
37646;DHT22;23489;49.600;6.138;2022-12-15T11:14:13;-1.90;99.90
37646;DHT22;23489;49.600;6.138;2022-12-15T11:16:55;-1.70;99.90
37646;DHT22;23489;49.600;6.138;2022-12-15T11:22:20;-1.50;99.90
37646;DHT22;23489;49.600;6.138;2022-12-15T11:24:53;-1.50;99.90
37646;DHT22;23489;49.600;6.138;2022-12-15T11:27:31;-1.40;99.90
37646;DHT22;23489;49.600;6.138;2022-12-15T11:30:14;-1.40;99.90
37646;DHT22;23489;49.600;6.138;2022-12-15T11:32:49;-1.30;99.90
37646;DHT22;23489;49.600;6.138;2022-12-15T11:35:21;-1.30;99.90
37646;DHT22;23489;49.600;6.138;2022-12-15T11:38:11;-1.20;99.90
37646;DHT22;23489;49.600;6.138;2022-12-15T11:40:40;-1.10;99.90
37646;DHT22;23489;49.600;6.138;2022-12-15T11:43:35;-1.10;99.90
37646;DHT22;23489;49.600;6.138;2022-12-15T11:46:29;-1.10;99.90
37646;DHT22;23489;49.600;6.138;2022-12-15T11:54:53;-1.10;99.90
37646;DHT22;23489;49.600;6.138;2022-12-15T11:57:30;-0.90;99.90
37646;DHT22;23489;49.600;6.138;2022-12-15T12:00:15;-0.90;99.90
37646;DHT22;23489;49.600;6.138;2022-12-15T12:02:56;-0.90;99.90
37646;DHT22;23489;49.600;6.138;2022-12-15T12:11:17;-1.00;99.90
37646;DHT22;23489;49.600;6.138;2022-12-15T12:19:37;-0.90;99.90
37646;DHT22;23489;49.600;6.138;2022-12-15T12:24:51;-0.70;99.90
37646;DHT22;23489;49.600;6.138;2022-12-15T12:27:40;-0.70;99.90
37646;DHT22;23489;49.600;6.138;2022-12-15T12:30:17;-0.60;99.90
37646;DHT22;23489;49.600;6.138;2022-12-15T12:38:05;-0.40;99.90
37646;DHT22;23489;49.600;6.138;2022-12-15T12:43:37;-0.20;99.90
37646;DHT22;23489;49.600;6.138;2022-12-15T12:46:16;-0.10;99.90
37646;DHT22;23489;49.600;6.138;2022-12-15T12:48:49;0.00;99.90
37646;DHT22;23489;49.600;6.138;2022-12-15T12:51:31;0.20;99.90
37646;DHT22;23489;49.600;6.138;2022-12-15T12:53:59;0.30;99.90
37646;DHT22;23489;49.600;6.138;2022-12-15T12:56:41;0.30;99.90
37646;DHT22;23489;49.600;6.138;2022-12-15T13:07:35;0.10;99.90
37646;DHT22;23489;49.600;6.138;2022-12-15T13:10:24;0.20;99.90
37646;DHT22;23489;49.600;6.138;2022-12-15T13:12:54;0.20;99.90
37646;DHT22;23489;49.600;6.138;2022-12-15T13:18:20;0.20;99.90
37646;DHT22;23489;49.600;6.138;2022-12-15T13:20:48;0.20;99.90
37646;DHT22;23489;49.600;6.138;2022-12-15T13:26:00;0.20;99.90
37646;DHT22;23489;49.600;6.138;2022-12-15T13:50:27;0.30;99.90
37646;DHT22;23489;49.600;6.138;2022-12-15T13:55:00;0.30;99.90
37646;DHT22;23489;49.600;6.138;2022-12-15T13:57:46;0.30;99.90
37646;DHT22;23489;49.600;6.138;2022-12-15T14:00:14;0.30;99.90
37646;DHT22;23489;49.600;6.138;2022-12-15T14:02:43;0.20;99.90
37646;DHT22;23489;49.600;6.138;2022-12-15T14:05:18;0.20;99.90
37646;DHT22;23489;49.600;6.138;2022-12-15T14:07:49;0.10;99.90
37646;DHT22;23489;49.600;6.138;2022-12-15T14:13:01;0.10;99.90
37646;DHT22;23489;49.600;6.138;2022-12-15T14:15:32;0.10;99.90
37646;DHT22;23489;49.600;6.138;2022-12-15T14:18:00;0.00;99.90
37646;DHT22;23489;49.600;6.138;2022-12-15T14:20:29;0.00;99.90
37646;DHT22;23489;49.600;6.138;2022-12-15T14:22:57;0.00;99.90
37646;DHT22;23489;49.600;6.138;2022-12-15T14:25:27;0.00;99.90
37646;DHT22;23489;49.600;6.138;2022-12-15T14:27:56;-0.10;99.90
37646;DHT22;23489;49.600;6.138;2022-12-15T14:30:28;-0.10;99.90
37646;DHT22;23489;49.600;6.138;2022-12-15T14:33:12;-0.10;99.90
37646;DHT22;23489;49.600;6.138;2022-12-15T14:35:44;-0.20;99.90
37646;DHT22;23489;49.600;6.138;2022-12-15T14:38:15;-0.20;99.90
37646;DHT22;23489;49.600;6.138;2022-12-15T14:40:43;-0.20;99.90
37646;DHT22;23489;49.600;6.138;2022-12-15T14:43:31;-0.20;99.90
37646;DHT22;23489;49.600;6.138;2022-12-15T14:46:11;-0.30;99.90
37646;DHT22;23489;49.600;6.138;2022-12-15T14:48:53;-0.30;99.90
37646;DHT22;23489;49.600;6.138;2022-12-15T14:51:20;-0.30;99.90
37646;DHT22;23489;49.600;6.138;2022-12-15T14:53:49;-0.40;99.90
37646;DHT22;23489;49.600;6.138;2022-12-15T14:56:25;-0.40;99.90
37646;DHT22;23489;49.600;6.138;2022-12-15T14:59:17;-0.50;99.90
37646;DHT22;23489;49.600;6.138;2022-12-15T15:01:52;-0.50;99.90
37646;DHT22;23489;49.600;6.138;2022-12-15T15:04:25;-0.60;99.90
37646;DHT22;23489;49.600;6.138;2022-12-15T15:06:59;-0.60;99.90
37646;DHT22;23489;49.600;6.138;2022-12-15T15:09:38;-0.60;99.90
37646;DHT22;23489;49.600;6.138;2022-12-15T15:12:23;-0.70;99.90
37646;DHT22;23489;49.600;6.138;2022-12-15T15:14:59;-0.80;99.90
37646;DHT22;23489;49.600;6.138;2022-12-15T15:20:18;-0.90;99.90
37646;DHT22;23489;49.600;6.138;2022-12-15T15:25:36;-1.00;99.90
37646;DHT22;23489;49.600;6.138;2022-12-15T15:33:47;-1.10;99.90
37646;DHT22;23489;49.600;6.138;2022-12-15T15:36:12;-1.10;99.90
37646;DHT22;23489;49.600;6.138;2022-12-15T15:38:40;-1.10;99.90
37646;DHT22;23489;49.600;6.138;2022-12-15T15:41:17;-1.20;99.90
37646;DHT22;23489;49.600;6.138;2022-12-15T15:43:44;-1.30;99.90
37646;DHT22;23489;49.600;6.138;2022-12-15T15:46:13;-1.30;99.90
37646;DHT22;23489;49.600;6.138;2022-12-15T15:49:04;-1.30;99.90
37646;DHT22;23489;49.600;6.138;2022-12-15T15:51:31;-1.40;99.90
37646;DHT22;23489;49.600;6.138;2022-12-15T15:54:00;-1.40;99.90
37646;DHT22;23489;49.600;6.138;2022-12-15T15:56:27;-1.40;99.90
37646;DHT22;23489;49.600;6.138;2022-12-15T15:58:55;-1.40;99.90
37646;DHT22;23489;49.600;6.138;2022-12-15T16:01:21;-1.40;99.90
37646;DHT22;23489;49.600;6.138;2022-12-15T16:03:47;-1.40;99.90
37646;DHT22;23489;49.600;6.138;2022-12-15T16:06:17;-1.40;99.90
37646;DHT22;23489;49.600;6.138;2022-12-15T16:08:45;-1.40;99.90
37646;DHT22;23489;49.600;6.138;2022-12-15T16:11:11;-1.40;99.90
37646;DHT22;23489;49.600;6.138;2022-12-15T16:13:37;-1.50;99.90
37646;DHT22;23489;49.600;6.138;2022-12-15T16:16:04;-1.50;99.90
37646;DHT22;23489;49.600;6.138;2022-12-15T16:18:30;-1.50;99.90
37646;DHT22;23489;49.600;6.138;2022-12-15T16:20:57;-1.50;99.90
37646;DHT22;23489;49.600;6.138;2022-12-15T16:23:26;-1.50;99.90
37646;DHT22;23489;49.600;6.138;2022-12-15T16:25:54;-1.40;99.90
37646;DHT22;23489;49.600;6.138;2022-12-15T16:28:28;-1.50;99.90
37646;DHT22;23489;49.600;6.138;2022-12-15T16:30:55;-1.40;99.90
37646;DHT22;23489;49.600;6.138;2022-12-15T16:33:23;-1.40;99.90
37646;DHT22;23489;49.600;6.138;2022-12-15T16:35:49;-1.40;99.90
37646;DHT22;23489;49.600;6.138;2022-12-15T16:40:44;-1.40;99.90
37646;DHT22;23489;49.600;6.138;2022-12-15T16:43:17;-1.40;99.90
37646;DHT22;23489;49.600;6.138;2022-12-15T16:45:45;-1.40;99.90
37646;DHT22;23489;49.600;6.138;2022-12-15T16:48:12;-1.50;99.90
37646;DHT22;23489;49.600;6.138;2022-12-15T16:50:40;-1.50;99.90
37646;DHT22;23489;49.600;6.138;2022-12-15T16:53:15;-1.60;99.90
37646;DHT22;23489;49.600;6.138;2022-12-15T16:55:42;-1.60;99.90
37646;DHT22;23489;49.600;6.138;2022-12-15T16:58:14;-1.70;99.90
37646;DHT22;23489;49.600;6.138;2022-12-15T17:00:41;-1.80;99.90
37646;DHT22;23489;49.600;6.138;2022-12-15T17:03:14;-1.80;99.90
37646;DHT22;23489;49.600;6.138;2022-12-15T17:05:42;-1.90;99.90
37646;DHT22;23489;49.600;6.138;2022-12-15T17:08:15;-1.90;99.90
37646;DHT22;23489;49.600;6.138;2022-12-15T17:10:43;-2.00;99.90
37646;DHT22;23489;49.600;6.138;2022-12-15T17:13:29;-2.00;99.90
37646;DHT22;23489;49.600;6.138;2022-12-15T17:15:56;-1.90;99.90
37646;DHT22;23489;49.600;6.138;2022-12-15T17:18:23;-2.00;99.90
37646;DHT22;23489;49.600;6.138;2022-12-15T17:20:49;-2.00;99.90
37646;DHT22;23489;49.600;6.138;2022-12-15T17:23:20;-2.10;99.90
37646;DHT22;23489;49.600;6.138;2022-12-15T17:25:48;-2.10;99.90
37646;DHT22;23489;49.600;6.138;2022-12-15T17:28:20;-2.20;99.90
37646;DHT22;23489;49.600;6.138;2022-12-15T17:30:47;-2.20;99.90
37646;DHT22;23489;49.600;6.138;2022-12-15T17:33:27;-2.20;99.90
37646;DHT22;23489;49.600;6.138;2022-12-15T17:35:55;-2.20;99.90
37646;DHT22;23489;49.600;6.138;2022-12-15T17:38:22;-2.20;99.90
37646;DHT22;23489;49.600;6.138;2022-12-15T17:40:49;-2.20;99.90
37646;DHT22;23489;49.600;6.138;2022-12-15T17:43:24;-2.20;99.90
37646;DHT22;23489;49.600;6.138;2022-12-15T17:45:50;-2.10;99.90
37646;DHT22;23489;49.600;6.138;2022-12-15T17:48:23;-2.00;99.90
37646;DHT22;23489;49.600;6.138;2022-12-15T17:50:50;-1.90;99.90
37646;DHT22;23489;49.600;6.138;2022-12-15T17:53:19;-1.80;99.90
37646;DHT22;23489;49.600;6.138;2022-12-15T17:55:46;-1.80;99.90
37646;DHT22;23489;49.600;6.138;2022-12-15T17:58:19;-1.70;99.90
37646;DHT22;23489;49.600;6.138;2022-12-15T18:00:50;-1.70;99.90
37646;DHT22;23489;49.600;6.138;2022-12-15T18:03:18;-1.70;99.90
37646;DHT22;23489;49.600;6.138;2022-12-15T18:05:46;-1.70;99.90
37646;DHT22;23489;49.600;6.138;2022-12-15T18:08:20;-1.70;99.90
37646;DHT22;23489;49.600;6.138;2022-12-15T18:10:48;-1.70;99.90